Time;durP1;ratioP1;P1;durP2;ratioP2;P2;SDS_P1;SDS_P2;PMS_P1;PMS_P2;Temp;Humidity;BMP_temperature;BMP_pressure;BME280_temperature;BME280_humidity;BME280_pressure;Samples;Min_cycle;Max_cycle;Signal;HPM_P1;HPM_P2
2022/05/01 00:01:19;;;;;;;11.10;6.70;;;;;;;2.92;65.74;99534.84;104863;1271;75607;-26
2022/05/01 00:03:47;;;;;;;18.70;8.90;;;;;;;2.76;65.93;99532.38;105111;1271;76146;-28
2022/05/01 00:06:14;;;;;;;15.60;8.60;;;;;;;2.65;67.31;99532.83;104713;1272;74337;-28
2022/05/01 00:08:42;;;;;;;16.10;9.00;;;;;;;2.54;68.01;99538.98;105114;1271;61173;-29
2022/05/01 00:11:09;;;;;;;16.50;9.20;;;;;;;2.40;68.92;99539.68;104814;1274;61909;-28
2022/05/01 00:13:40;;;;;;;8.30;4.60;;;;;;;2.27;69.95;99542.77;104768;1274;75598;-26
2022/05/01 00:16:28;;;;;;;15.40;7.70;;;;;;;2.82;70.64;99547.08;104642;1271;77133;-27
2022/05/01 00:18:55;;;;;;;16.80;8.70;;;;;;;3.37;69.02;99547.33;104826;1271;74282;-26
2022/05/01 00:21:23;;;;;;;16.30;8.70;;;;;;;3.43;68.46;99548.13;104728;1274;61123;-27
2022/05/01 00:23:50;;;;;;;17.20;7.50;;;;;;;3.28;68.71;99548.08;104956;1271;61127;-29
2022/05/01 00:26:17;;;;;;;22.20;9.40;;;;;;;3.08;68.82;99546.15;104796;1271;75626;-29
2022/05/01 00:28:44;;;;;;;21.40;10.20;;;;;;;2.87;69.63;99544.47;104960;1271;73980;-26
2022/05/01 00:31:16;;;;;;;16.40;9.60;;;;;;;2.67;69.83;99544.08;104860;1271;74149;-26
2022/05/01 00:36:30;;;;;;;12.60;8.10;;;;;;;2.35;69.87;99546.55;105116;1272;61650;-26
2022/05/01 00:39:01;;;;;;;14.10;8.20;;;;;;;2.22;70.41;99548.44;105032;1274;75631;-26
2022/05/01 00:41:30;;;;;;;14.10;7.90;;;;;;;2.10;70.94;99548.06;104655;1272;75971;-26
2022/05/01 00:44:09;;;;;;;8.20;4.40;;;;;;;1.99;71.06;99548.64;104725;1271;73297;-26
2022/05/01 00:46:48;;;;;;;20.10;8.60;;;;;;;2.52;70.99;99545.86;104692;1274;61137;-26
2022/05/01 00:49:25;;;;;;;12.40;7.30;;;;;;;3.20;70.04;99550.30;104651;1273;61895;-26
2022/05/01 00:51:58;;;;;;;17.60;7.40;;;;;;;3.30;68.82;99547.45;104656;1274;75898;-26
2022/05/01 00:54:29;;;;;;;13.30;7.50;;;;;;;3.17;68.07;99542.34;104807;1271;75810;-26
2022/05/01 00:57:00;;;;;;;17.70;9.00;;;;;;;2.97;67.57;99539.58;104751;1272;74634;-26
2022/05/01 00:59:29;;;;;;;14.30;7.50;;;;;;;2.76;67.58;99536.33;104616;1273;61119;-26
2022/05/01 01:01:56;;;;;;;12.90;7.10;;;;;;;2.56;67.93;99539.05;104659;1274;62187;-26
2022/05/01 01:04:23;;;;;;;11.20;5.80;;;;;;;2.37;68.38;99539.10;104705;1272;75431;-26
2022/05/01 01:06:51;;;;;;;11.70;6.80;;;;;;;2.21;67.95;99538.02;105113;1271;74750;-26
2022/05/01 01:09:18;;;;;;;10.60;6.00;;;;;;;2.06;68.35;99534.14;104932;1271;74484;-26
2022/05/01 01:11:45;;;;;;;7.10;4.50;;;;;;;1.92;68.74;99533.14;104923;1271;61619;-26
2022/05/01 01:14:15;;;;;;;6.40;2.30;;;;;;;1.81;68.58;99530.47;104878;1271;61048;-26
2022/05/01 01:16:44;;;;;;;5.50;2.90;;;;;;;2.26;70.14;99530.95;104993;1271;75510;-26
2022/05/01 01:19:12;;;;;;;6.90;3.40;;;;;;;2.89;68.89;99531.88;104938;1271;75954;-26
2022/05/01 01:21:39;;;;;;;4.00;2.90;;;;;;;2.96;68.00;99528.83;104873;1271;74298;-26
2022/05/01 01:24:08;;;;;;;4.10;2.70;;;;;;;2.78;68.09;99528.89;104968;1271;61523;-26
2022/05/01 01:26:35;;;;;;;6.10;3.10;;;;;;;2.56;67.94;99528.05;104696;1271;62045;-26
2022/05/01 01:31:40;;;;;;;5.80;2.60;;;;;;;2.34;69.09;99527.59;104988;1271;75452;-26
2022/05/01 01:31:55;;;;;;;6.20;3.40;;;;;;;2.03;70.16;99530.50;104643;1274;76045;-27
2022/05/01 01:34:22;;;;;;;4.60;3.00;;;;;;;1.77;71.22;99534.56;104701;1271;74158;-27
2022/05/01 01:36:49;;;;;;;5.90;3.20;;;;;;;1.58;71.52;99532.99;104873;1271;61159;-26
2022/05/01 01:39:18;;;;;;;6.40;3.40;;;;;;;1.42;71.77;99529.67;104816;1271;61109;-26
2022/05/01 01:41:46;;;;;;;3.80;2.10;;;;;;;1.30;72.74;99526.67;104808;1271;75393;-26
2022/05/01 01:44:14;;;;;;;6.00;2.60;;;;;;;1.80;73.07;99526.38;104723;1271;75147;-26
2022/05/01 01:46:42;;;;;;;3.80;2.50;;;;;;;2.46;71.71;99526.08;104676;1271;74475;-26
2022/05/01 01:49:10;;;;;;;4.30;2.60;;;;;;;2.57;71.00;99525.81;104890;1271;61159;-26
2022/05/01 01:51:38;;;;;;;6.90;2.90;;;;;;;2.45;70.92;99523.02;105080;1271;61865;-26
2022/05/01 01:54:09;;;;;;;4.40;2.80;;;;;;;2.27;70.95;99528.88;105048;1271;75362;-26
2022/05/01 01:56:38;;;;;;;3.70;2.60;;;;;;;2.06;70.87;99525.23;104730;1274;75961;-26
2022/05/01 01:59:05;;;;;;;4.80;2.90;;;;;;;1.85;71.02;99529.77;104867;1271;73244;-26
2022/05/01 02:01:33;;;;;;;5.70;3.50;;;;;;;1.65;71.64;99527.09;104957;1271;61154;-28
2022/05/01 02:04:01;;;;;;;3.60;2.30;;;;;;;1.48;72.59;99524.64;104910;1271;61111;-27
2022/05/01 02:06:29;;;;;;;3.60;1.90;;;;;;;1.35;73.04;99527.01;104898;1271;75011;-28
2022/05/01 02:08:58;;;;;;;4.50;2.50;;;;;;;1.80;73.54;99523.30;105095;1271;75878;-26
2022/05/01 02:11:25;;;;;;;3.50;2.20;;;;;;;2.48;72.53;99524.61;105014;1271;74247;-26
2022/05/01 02:13:52;;;;;;;4.60;2.60;;;;;;;2.61;72.13;99523.08;105075;1274;62524;-26
2022/05/01 02:16:20;;;;;;;3.80;2.60;;;;;;;2.47;71.99;99522.59;104802;1274;61136;-26
2022/05/01 02:18:47;;;;;;;6.10;2.70;;;;;;;2.23;72.78;99520.46;105092;1274;75583;-26
2022/05/01 02:24:01;;;;;;;4.90;3.40;;;;;;;1.88;73.14;99520.96;105119;1271;74405;-26
2022/05/01 02:26:29;;;;;;;6.00;3.60;;;;;;;1.74;73.98;99519.77;104752;1271;61158;-27
2022/05/01 02:28:59;;;;;;;7.40;4.10;;;;;;;1.61;74.43;99522.64;104824;1271;61123;-27
2022/05/01 02:31:26;;;;;;;5.80;3.00;;;;;;;1.53;74.72;99522.08;104768;1271;75377;-26
2022/05/01 02:33:54;;;;;;;5.60;4.00;;;;;;;2.05;74.65;99521.48;104705;1274;75860;-26
2022/05/01 02:36:21;;;;;;;5.40;3.70;;;;;;;2.74;72.75;99521.84;104632;1271;74315;-27
2022/05/01 02:38:49;;;;;;;7.40;3.90;;;;;;;2.90;71.33;99520.86;104930;1271;61150;-26
2022/05/01 02:41:17;;;;;;;4.80;2.80;;;;;;;2.78;70.85;99521.88;104748;1271;61015;-26
2022/05/01 02:43:45;;;;;;;5.60;3.00;;;;;;;2.57;70.96;99518.44;104908;1271;74520;-26
2022/05/01 02:46:13;;;;;;;6.00;4.00;;;;;;;2.35;71.87;99524.46;104865;1271;75800;-26
2022/05/01 02:48:40;;;;;;;8.60;4.00;;;;;;;2.15;71.88;99531.22;104855;1271;74361;-26
2022/05/01 02:51:07;;;;;;;5.30;3.60;;;;;;;1.95;72.36;99529.06;104937;1271;61135;-26
2022/05/01 02:53:34;;;;;;;7.70;3.60;;;;;;;1.79;73.17;99532.09;104777;1274;61088;-25
2022/05/01 02:56:02;;;;;;;6.00;3.90;;;;;;;1.61;74.04;99532.58;104939;1271;75529;-28
2022/05/01 02:58:29;;;;;;;3.70;2.30;;;;;;;1.46;74.88;99531.57;104685;1271;75976;-28
2022/05/01 03:00:57;;;;;;;5.70;3.60;;;;;;;1.95;75.53;99536.42;104908;1271;74527;-26
2022/05/01 03:03:24;;;;;;;5.80;3.40;;;;;;;2.69;73.88;99534.38;105094;1273;61167;-26
2022/05/01 03:05:52;;;;;;;6.10;3.20;;;;;;;3.03;72.12;99535.25;104952;1274;61065;-26
2022/05/01 03:08:20;;;;;;;7.50;3.20;;;;;;;3.11;70.56;99533.17;104805;1271;75578;-26
2022/05/01 03:10:49;;;;;;;4.80;3.10;;;;;;;3.05;69.68;99528.48;105040;1274;75994;-29
2022/05/01 03:13:17;;;;;;;4.10;3.30;;;;;;;2.88;70.19;99531.75;104812;1272;73146;-30
2022/05/01 03:15:44;;;;;;;8.30;4.30;;;;;;;2.78;70.49;99527.86;104690;1274;61156;-27
2022/05/01 03:23:43;;;;;;;5.10;3.20;;;;;;;2.78;70.86;99529.55;104805;1272;76018;-26
2022/05/01 03:26:10;;;;;;;4.10;1.80;;;;;;;2.74;71.06;99530.25;104916;1271;74316;-27
2022/05/01 03:28:39;;;;;;;4.90;2.70;;;;;;;3.28;71.06;99535.34;105099;1271;61147;-26
2022/05/01 03:31:09;;;;;;;7.60;3.00;;;;;;;3.92;69.49;99537.99;104819;1271;61009;-26
2022/05/01 03:33:37;;;;;;;16.60;6.00;;;;;;;4.02;68.71;99532.92;104864;1274;75415;-26
2022/05/01 03:36:06;;;;;;;9.50;5.40;;;;;;;3.93;68.81;99537.28;104867;1271;75896;-26
2022/05/01 03:38:38;;;;;;;10.90;5.90;;;;;;;3.84;69.27;99541.67;104679;1274;73317;-27
2022/05/01 03:41:09;;;;;;;15.20;6.40;;;;;;;3.79;69.68;99542.23;104716;1271;61115;-26
2022/05/01 03:43:38;;;;;;;10.30;5.80;;;;;;;3.69;70.34;99543.33;104680;1271;61083;-26
2022/05/01 03:46:05;;;;;;;13.70;5.30;;;;;;;3.63;70.32;99546.36;104898;1271;75786;-27
2022/05/01 03:48:33;;;;;;;12.30;7.80;;;;;;;3.60;70.61;99545.66;104924;1271;76060;-27
2022/05/01 03:51:00;;;;;;;14.10;8.80;;;;;;;3.59;70.19;99544.14;104913;1271;74254;-26
2022/05/01 03:53:27;;;;;;;9.30;4.70;;;;;;;3.61;70.25;99552.30;104918;1271;61041;-26
2022/05/01 03:55:54;;;;;;;12.20;5.50;;;;;;;4.24;70.90;99551.64;104892;1271;61130;-26
2022/05/01 03:58:21;;;;;;;13.50;7.10;;;;;;;5.08;68.66;99548.84;104641;1274;75160;-26
2022/05/01 04:00:49;;;;;;;14.40;7.80;;;;;;;5.38;67.28;99554.69;104828;1271;76584;-26
2022/05/01 04:03:19;;;;;;;15.50;7.90;;;;;;;5.33;67.40;99553.55;104935;1271;74455;-26
2022/05/01 04:05:46;;;;;;;12.10;6.90;;;;;;;5.28;67.63;99554.23;105157;1271;61233;-26
2022/05/01 04:08:13;;;;;;;9.80;5.50;;;;;;;5.21;66.65;99554.03;104936;1271;61794;-26
2022/05/01 04:10:44;;;;;;;10.00;5.60;;;;;;;5.11;66.48;99556.58;104944;1271;74524;-26
2022/05/01 04:13:13;;;;;;;6.90;4.50;;;;;;;5.02;66.85;99553.78;104673;1271;75750;-26
2022/05/01 04:15:44;;;;;;;11.10;4.70;;;;;;;4.96;67.24;99555.09;104846;1271;74480;-26
2022/05/01 04:18:12;;;;;;;7.30;3.80;;;;;;;4.94;67.60;99555.88;104811;1273;61152;-26
2022/05/01 04:20:39;;;;;;;6.10;4.00;;;;;;;4.92;67.39;99557.52;104772;1271;62086;-26
2022/05/01 04:23:07;;;;;;;5.90;3.60;;;;;;;4.90;67.04;99553.83;104826;1271;75322;-26
2022/05/01 04:25:34;;;;;;;5.70;2.60;;;;;;;4.90;67.38;99555.19;104789;1271;74966;-26
2022/05/01 04:28:07;;;;;;;7.00;3.20;;;;;;;5.49;67.41;99554.45;104902;1271;74833;-26
2022/05/01 04:30:35;;;;;;;6.50;3.60;;;;;;;6.29;65.92;99553.50;104782;1271;60974;-26
2022/05/01 04:33:06;;;;;;;7.20;3.80;;;;;;;6.49;64.98;99552.92;104630;1271;61102;-26
2022/05/01 04:35:52;;;;;;;8.40;3.70;;;;;;;6.46;64.85;99553.25;104788;1271;75278;-26
2022/05/01 04:38:21;;;;;;;9.20;4.40;;;;;;;6.34;64.32;99551.67;104894;1274;76187;-26
2022/05/01 04:40:50;;;;;;;6.50;3.20;;;;;;;6.22;64.60;99551.29;104620;1274;73337;-26
2022/05/01 04:43:18;;;;;;;9.60;3.50;;;;;;;6.27;64.31;99551.52;104756;1272;61131;-26
2022/05/01 04:45:48;;;;;;;5.60;3.30;;;;;;;6.51;63.78;99550.40;104621;1274;62318;-25
2022/05/01 04:48:19;;;;;;;5.20;3.00;;;;;;;6.83;63.68;99546.52;104638;1271;75576;-26
2022/05/01 04:50:47;;;;;;;7.70;3.80;;;;;;;7.13;63.23;99545.63;104622;1274;75954;-26
2022/05/01 04:53:16;;;;;;;5.70;3.60;;;;;;;7.38;63.56;99546.39;104699;1274;74461;-25
2022/05/01 04:55:44;;;;;;;11.40;4.60;;;;;;;7.67;63.69;99546.77;104646;1274;61147;-25
2022/05/01 04:58:12;;;;;;;7.30;4.10;;;;;;;7.91;63.67;99553.36;104776;1271;61056;-26
2022/05/01 05:00:39;;;;;;;8.20;4.60;;;;;;;8.16;62.95;99552.19;104936;1271;75757;-26
2022/05/01 05:03:07;;;;;;;11.50;4.50;;;;;;;8.30;62.69;99558.05;104981;1271;74946;-26
2022/05/01 05:05:35;;;;;;;10.70;4.50;;;;;;;8.44;63.03;99561.64;104967;1271;74370;-26
2022/05/01 05:10:50;;;;;;;12.10;5.10;;;;;;;8.67;62.62;99559.69;104516;1271;61097;-26
2022/05/01 05:13:26;;;;;;;;;;;;;;;8.72;62.68;99558.17;105083;1271;75837;-26
2022/05/01 05:15:58;;;;;;;10.80;4.90;;;;;;;8.69;63.30;99565.48;105076;1271;76000;-26
2022/05/01 05:18:29;;;;;;;12.00;4.70;;;;;;;8.67;62.58;99567.67;104692;1274;74331;-26
2022/05/01 05:20:56;;;;;;;8.20;5.00;;;;;;;8.68;62.96;99572.24;104700;1271;61144;-26
2022/05/01 05:23:24;;;;;;;7.90;4.70;;;;;;;8.77;62.19;99571.69;104891;1271;61131;-26
2022/05/01 05:25:51;;;;;;;7.90;5.00;;;;;;;8.81;60.92;99571.62;104929;1271;75669;-26
2022/05/01 05:28:18;;;;;;;19.80;5.20;;;;;;;8.81;60.35;99570.24;104739;1274;75910;-26
2022/05/01 05:30:48;;;;;;;7.70;4.20;;;;;;;8.81;60.69;99569.02;104919;1271;74527;-26
2022/05/01 05:33:16;;;;;;;10.00;4.60;;;;;;;8.84;60.58;99569.19;104677;1272;61932;-26
2022/05/01 05:35:44;;;;;;;14.20;4.70;;;;;;;8.90;61.11;99571.02;104921;1271;61895;-26
2022/05/01 05:38:12;;;;;;;14.70;5.60;;;;;;;8.93;60.79;99569.27;104731;1271;75483;-25
2022/05/01 05:40:39;;;;;;;8.40;5.10;;;;;;;8.96;61.00;99567.54;104944;1271;75769;-25
2022/05/01 05:43:06;;;;;;;9.80;4.50;;;;;;;9.00;61.37;99567.73;105023;1272;74366;-25
2022/05/01 05:45:33;;;;;;;8.40;4.80;;;;;;;9.05;61.72;99564.80;104969;1271;61077;-25
2022/05/01 05:48:02;;;;;;;14.10;5.10;;;;;;;9.09;61.08;99566.80;104936;1271;61059;-25
2022/05/01 05:50:29;;;;;;;14.30;3.90;;;;;;;9.12;61.42;99568.51;104646;1272;75112;-25
2022/05/01 05:52:56;;;;;;;8.80;4.10;;;;;;;9.22;61.26;99570.61;104761;1273;75784;-25
2022/05/01 05:55:25;;;;;;;9.20;4.10;;;;;;;9.33;60.89;99566.61;105001;1271;74464;-26
2022/05/01 05:57:52;;;;;;;8.70;4.20;;;;;;;9.42;60.72;99567.19;105149;1271;61115;-26
2022/05/01 06:00:19;;;;;;;6.80;4.10;;;;;;;9.54;60.93;99569.36;104957;1271;61056;-26
2022/05/01 06:02:46;;;;;;;9.20;4.10;;;;;;;9.63;60.45;99568.20;104857;1274;75602;-26
2022/05/01 06:05:14;;;;;;;5.50;3.30;;;;;;;9.80;60.12;99568.95;104888;1271;75829;-26
2022/05/01 06:07:41;;;;;;;6.00;3.50;;;;;;;9.97;59.91;99566.23;104893;1271;74221;-26
2022/05/01 06:10:10;;;;;;;5.60;3.30;;;;;;;10.15;59.80;99568.04;105818;1262;61044;-26
2022/05/01 06:12:41;;;;;;;12.00;3.60;;;;;;;10.36;59.04;99572.27;105162;1271;61160;-26
2022/05/01 06:15:13;;;;;;;7.30;3.30;;;;;;;10.66;58.22;99572.77;104767;1274;74503;-27
2022/05/01 06:17:43;;;;;;;8.40;3.10;;;;;;;10.92;58.04;99570.70;105172;1271;75969;-27
2022/05/01 06:20:11;;;;;;;7.00;3.00;;;;;;;11.12;56.25;99568.15;105052;1274;74392;-25
2022/05/01 06:22:39;;;;;;;7.60;3.60;;;;;;;11.38;56.00;99566.70;104932;1274;62053;-25
2022/05/01 06:25:07;;;;;;;6.60;2.90;;;;;;;11.62;54.15;99565.04;105134;1274;62062;-26
2022/05/01 06:27:35;;;;;;;8.10;3.30;;;;;;;11.92;53.74;99564.80;104863;1271;74731;-26
2022/05/01 06:30:03;;;;;;;11.40;3.40;;;;;;;12.20;53.48;99565.41;104931;1274;75731;-26
2022/05/01 06:32:30;;;;;;;8.50;2.90;;;;;;;12.37;52.13;99558.05;104891;1274;74433;-26
2022/05/01 06:34:57;;;;;;;5.10;2.80;;;;;;;12.29;51.52;99558.29;104875;1274;61186;-26
2022/05/01 06:37:30;;;;;;;8.00;2.60;;;;;;;12.57;50.59;99556.59;105141;1271;61459;-26
2022/05/01 06:39:57;;;;;;;5.00;2.10;;;;;;;12.88;49.29;99553.51;105126;1274;75694;-26
2022/05/01 06:42:25;;;;;;;3.10;2.10;;;;;;;13.10;49.12;99556.23;105148;1271;75950;-27
2022/05/01 06:44:53;;;;;;;6.10;2.90;;;;;;;13.31;47.85;99554.98;105120;1271;74646;-26
2022/05/01 06:47:20;;;;;;;8.00;2.60;;;;;;;13.52;47.19;99557.59;105156;1271;61301;-26
2022/05/01 06:49:47;;;;;;;4.80;2.20;;;;;;;13.77;46.12;99563.17;105058;1271;61160;-26
2022/05/01 06:52:23;;;;;;;7.10;2.80;;;;;;;13.71;45.07;99564.20;104977;1274;75494;-26
2022/05/01 06:54:51;;;;;;;5.30;2.40;;;;;;;14.00;45.95;99566.38;104926;1274;75921;-26
2022/05/01 06:57:18;;;;;;;3.40;2.30;;;;;;;14.24;45.50;99564.66;104791;1274;74358;-26
2022/05/01 06:59:46;;;;;;;10.10;2.60;;;;;;;14.36;44.87;99566.55;105027;1271;61131;-26
2022/05/01 07:02:14;;;;;;;3.70;2.20;;;;;;;14.57;44.82;99568.06;104978;1272;62160;-26
2022/05/01 07:04:41;;;;;;;5.00;2.40;;;;;;;14.83;43.81;99570.80;105106;1271;74593;-26
2022/05/01 07:07:08;;;;;;;4.30;2.40;;;;;;;15.07;42.91;99573.55;104948;1271;76070;-26
2022/05/01 07:09:39;;;;;;;4.30;2.00;;;;;;;15.32;42.45;99578.96;104801;1271;74130;-26
2022/05/01 07:12:10;;;;;;;5.10;2.30;;;;;;;15.41;40.58;99578.80;105004;1271;61148;-26
2022/05/01 07:14:57;;;;;;;4.60;1.70;;;;;;;15.71;41.05;99580.88;104899;1271;62056;-26
2022/05/01 07:17:24;;;;;;;5.40;1.90;;;;;;;15.91;39.00;99583.96;104760;1271;74037;-26
2022/05/01 07:19:51;;;;;;;4.20;1.80;;;;;;;16.04;37.97;99587.83;104502;1271;461000;-25
2022/05/01 07:22:19;;;;;;;6.80;2.20;;;;;;;16.29;37.39;99587.38;104990;1271;73972;-25
2022/05/01 07:24:46;;;;;;;3.20;1.60;;;;;;;16.37;36.35;99586.40;104805;1271;61124;-25
2022/05/01 07:27:13;;;;;;;3.40;1.70;;;;;;;16.41;36.14;99577.45;104860;1271;61184;-25
2022/05/01 07:29:40;;;;;;;4.90;2.20;;;;;;;16.34;34.94;99575.79;104857;1271;75366;-25
2022/05/01 07:32:09;;;;;;;3.30;1.60;;;;;;;16.42;34.88;99576.65;105067;1271;74739;-25
2022/05/01 07:34:37;;;;;;;6.20;2.00;;;;;;;16.44;36.03;99578.52;104821;1271;73236;-26
2022/05/01 07:37:04;;;;;;;2.20;1.70;;;;;;;16.39;34.24;99580.77;104593;1271;61928;-25
2022/05/01 07:39:32;;;;;;;3.60;1.90;;;;;;;16.30;33.58;99574.84;104766;1271;60971;-25
2022/05/01 07:41:59;;;;;;;3.20;2.10;;;;;;;16.64;34.34;99579.35;104806;1271;75441;-25
2022/05/01 07:44:26;;;;;;;2.20;1.50;;;;;;;17.01;33.59;99571.59;104829;1271;74764;-25
2022/05/01 07:46:54;;;;;;;4.10;1.80;;;;;;;16.90;32.84;99575.05;104756;1274;74369;-25
2022/05/01 07:49:21;;;;;;;2.20;1.60;;;;;;;17.03;33.98;99575.45;105040;1271;61144;-26
2022/05/01 07:51:48;;;;;;;2.20;1.60;;;;;;;17.34;32.63;99570.61;104759;1271;61015;-25
2022/05/01 07:54:16;;;;;;;5.00;2.30;;;;;;;17.49;32.02;99567.09;104959;1271;75953;-25
2022/05/01 07:56:45;;;;;;;2.80;1.80;;;;;;;17.46;31.23;99568.67;104840;1271;74983;-25
2022/05/01 07:59:14;;;;;;;2.70;1.50;;;;;;;17.34;31.11;99562.85;104810;1271;74249;-25
2022/05/01 08:01:41;;;;;;;2.90;1.50;;;;;;;17.35;30.53;99561.70;104728;1271;61029;-26
2022/05/01 08:04:28;;;;;;;2.60;1.60;;;;;;;17.44;30.25;99562.14;104820;1271;61131;-25
2022/05/01 08:07:01;;;;;;;4.30;1.60;;;;;;;17.68;31.66;99560.06;104933;1274;75549;-25
2022/05/01 08:09:29;;;;;;;4.50;2.00;;;;;;;17.58;31.46;99559.02;104971;1274;75722;-25
2022/05/01 08:11:56;;;;;;;2.70;1.60;;;;;;;17.41;30.40;99550.19;104745;1274;74433;-25
2022/05/01 08:14:24;;;;;;;2.40;1.60;;;;;;;17.56;31.19;99553.23;104981;1271;61127;-25
2022/05/01 08:16:51;;;;;;;4.20;1.90;;;;;;;17.53;30.73;99551.78;104879;1274;61133;-25
2022/05/01 08:22:05;;;;;;;3.30;1.80;;;;;;;18.12;31.16;99550.17;105127;1271;75850;-25
2022/05/01 08:24:33;;;;;;;3.20;1.80;;;;;;;18.27;30.07;99550.17;105017;1271;74339;-26
2022/05/01 08:27:05;;;;;;;4.20;2.00;;;;;;;18.00;28.73;99548.67;104824;1274;61782;-26
2022/05/01 08:29:33;;;;;;;3.30;1.90;;;;;;;17.87;29.60;99545.67;105020;1274;61129;-26
2022/05/01 08:32:00;;;;;;;3.70;1.90;;;;;;;18.06;29.54;99540.62;104799;1275;75480;-26
2022/05/01 08:34:28;;;;;;;2.60;1.70;;;;;;;18.34;27.46;99536.36;104942;1271;75946;-25
2022/05/01 08:36:56;;;;;;;2.50;1.60;;;;;;;18.60;27.20;99529.29;105026;1274;74510;-26
2022/05/01 08:39:23;;;;;;;8.70;1.60;;;;;;;18.89;26.79;99532.14;104728;1271;61118;-26
2022/05/01 08:41:51;;;;;;;3.30;1.90;;;;;;;19.28;27.69;99527.70;105113;1271;61228;-26
2022/05/01 08:44:22;;;;;;;4.70;2.00;;;;;;;19.38;28.58;99527.70;105084;1271;75523;-25
2022/05/01 08:47:16;;;;;;;2.70;1.70;;;;;;;19.37;27.38;99529.52;104875;1274;75085;-26
2022/05/01 08:49:44;;;;;;;4.00;1.10;;;;;;;19.44;27.31;99523.81;104987;1271;74423;-26
2022/05/01 08:52:12;;;;;;;2.00;1.30;;;;;;;19.68;26.02;99520.02;105125;1271;62207;-26
2022/05/01 08:54:39;;;;;;;3.30;1.70;;;;;;;19.82;26.51;99522.29;105073;1271;61059;-25
2022/05/01 08:57:07;;;;;;;5.70;1.60;;;;;;;20.06;25.98;99524.54;104778;1277;75550;-27
2022/05/01 08:59:34;;;;;;;4.10;1.80;;;;;;;20.43;24.08;99522.79;104904;1271;76009;-26
2022/05/01 09:02:01;;;;;;;2.80;1.80;;;;;;;20.52;24.46;99519.14;104713;1274;74485;-27
2022/05/01 09:04:29;;;;;;;2.50;1.60;;;;;;;20.80;24.83;99519.80;104797;1271;61349;-26
2022/05/01 09:06:57;;;;;;;2.40;1.50;;;;;;;20.93;24.98;99518.13;104711;1272;61999;-26
2022/05/01 09:09:24;;;;;;;2.40;1.40;;;;;;;20.89;24.57;99512.58;104954;1271;75491;-26
2022/05/01 09:15:00;;;;;;;2.00;1.40;;;;;;;20.37;23.27;99520.67;104584;1277;74238;-25
2022/05/01 09:17:28;;;;;;;3.50;1.70;;;;;;;20.45;23.54;99515.04;104597;1277;61160;-25
2022/05/01 09:20:06;;;;;;;2.40;1.30;;;;;;;20.82;22.94;99507.52;104879;1274;61012;-25
2022/05/01 09:22:50;;;;;;;2.30;1.10;;;;;;;21.24;22.77;99505.51;105039;1271;74516;-26
2022/05/01 09:25:19;;;;;;;2.30;1.10;;;;;;;21.37;20.37;99495.53;104803;1274;76054;-26
2022/05/01 09:27:49;;;;;;;2.80;1.50;;;;;;;21.55;20.66;99492.48;104500;1275;74297;-26
2022/05/01 09:30:19;;;;;;;2.20;1.30;;;;;;;21.68;20.93;99490.16;104815;1274;61156;-26
2022/05/01 09:32:47;;;;;;;1.60;1.10;;;;;;;21.95;19.45;99487.84;104767;1271;61346;-26
2022/05/01 09:35:23;;;;;;;2.80;1.40;;;;;;;22.19;20.78;99487.70;104790;1271;74411;-26
2022/05/01 09:37:51;;;;;;;2.40;1.50;;;;;;;22.33;22.09;99483.66;104968;1274;76034;-27
2022/05/01 09:40:31;;;;;;;1.90;1.40;;;;;;;22.02;21.49;99481.80;104823;1271;74443;-25
2022/05/01 09:42:58;;;;;;;1.90;1.40;;;;;;;21.57;22.94;99480.58;104644;1274;61788;-26
2022/05/01 09:45:30;;;;;;;2.60;1.40;;;;;;;21.09;22.85;99482.17;104822;1271;61714;-25
2022/05/01 09:47:58;;;;;;;3.00;1.70;;;;;;;20.86;22.95;99475.33;104592;1274;74494;-26
2022/05/01 09:50:42;;;;;;;3.10;1.60;;;;;;;20.59;23.16;99478.65;104813;1271;76095;-27
2022/05/01 09:53:09;;;;;;;3.50;1.30;;;;;;;20.42;24.23;99478.36;104817;1274;74470;-27
2022/05/01 09:55:37;;;;;;;3.40;1.50;;;;;;;19.83;24.05;99474.66;105107;1271;61158;-27
2022/05/01 09:58:12;;;;;;;3.70;1.20;;;;;;;19.19;24.24;99477.32;104991;1271;61132;-27
2022/05/01 10:00:44;;;;;;;2.80;1.40;;;;;;;19.22;26.01;99472.45;104810;1271;74111;-28
2022/05/01 10:03:19;;;;;;;4.70;1.30;;;;;;;19.85;27.23;99469.00;104993;1274;75975;-25
2022/05/01 10:05:47;;;;;;;3.50;1.60;;;;;;;20.61;25.81;99465.35;105034;1274;74572;-25
2022/05/01 10:08:14;;;;;;;4.00;1.70;;;;;;;20.80;23.26;99462.27;104858;1274;61167;-26
2022/05/01 10:10:41;;;;;;;1.90;1.50;;;;;;;20.79;22.31;99459.01;105033;1271;61058;-25
2022/05/01 10:13:09;;;;;;;2.90;1.30;;;;;;;21.09;22.39;99461.14;104719;1274;75387;-25
2022/05/01 10:15:56;;;;;;;2.40;1.20;;;;;;;21.21;21.53;99457.30;104758;1274;75958;-25
2022/05/01 10:18:24;;;;;;;2.80;1.30;;;;;;;21.44;22.78;99456.70;105113;1274;74465;-25
2022/05/01 10:20:52;;;;;;;5.30;1.70;;;;;;;21.84;22.18;99458.04;105162;1271;61048;-26
2022/05/01 10:23:19;;;;;;;2.00;1.30;;;;;;;21.86;22.25;99454.44;105009;1271;61884;-26
2022/05/01 10:26:06;;;;;;;46.10;3.60;;;;;;;21.34;22.66;99447.21;105145;1271;75711;-25
2022/05/01 10:29:03;;;;;;;2.80;1.20;;;;;;;21.28;21.44;99444.25;104964;1271;74985;-26
2022/05/01 10:34:57;;;;;;;1.80;1.10;;;;;;;22.59;21.98;99449.02;105055;1274;61035;-27
2022/05/01 10:37:46;;;;;;;1.70;1.30;;;;;;;22.87;22.72;99448.41;105077;1271;61136;-25
2022/05/01 10:40:13;;;;;;;2.80;1.30;;;;;;;23.06;22.13;99446.67;105164;1271;75529;-26
2022/05/01 10:42:49;;;;;;;2.50;1.30;;;;;;;22.95;21.34;99444.77;105035;1274;75936;-26
2022/05/01 10:45:23;;;;;;;1.90;1.00;;;;;;;22.69;23.15;99437.45;105045;1272;74307;-27
2022/05/01 10:47:56;;;;;;;2.10;1.00;;;;;;;22.06;23.99;99438.01;105048;1271;61018;-25
2022/05/01 10:50:27;;;;;;;3.00;1.40;;;;;;;21.44;23.32;99437.96;105120;1271;61172;-26
2022/05/01 10:53:09;;;;;;;2.70;1.20;;;;;;;21.00;22.69;99436.79;104890;1272;74991;-25
2022/05/01 10:55:48;;;;;;;2.40;1.20;;;;;;;20.67;23.70;99428.56;104638;1274;75985;-26
2022/05/01 10:58:22;;;;;;;1.70;1.10;;;;;;;20.01;25.80;99429.02;104800;1274;74218;-25
2022/05/01 11:00:51;;;;;;;3.00;1.30;;;;;;;19.54;26.24;99430.18;104727;1272;61082;-26
2022/05/01 11:03:28;;;;;;;1.70;1.00;;;;;;;19.62;26.56;99427.52;104641;1274;61810;-25
2022/05/01 11:06:02;;;;;;;3.10;1.10;;;;;;;20.25;25.68;99428.14;104613;1275;74514;-25
2022/05/01 11:08:31;;;;;;;4.00;1.40;;;;;;;20.80;23.09;99426.77;104850;1274;75768;-26
2022/05/01 11:11:00;;;;;;;2.40;1.50;;;;;;;21.16;24.40;99423.66;104715;1274;74273;-26
2022/05/01 11:13:36;;;;;;;1.60;1.20;;;;;;;21.54;23.57;99421.77;104823;1274;61489;-26
2022/05/01 11:16:08;;;;;;;1.50;1.10;;;;;;;21.45;23.84;99421.87;104894;1274;61151;-25
2022/05/01 11:18:39;;;;;;;1.90;1.10;;;;;;;21.22;23.06;99418.88;104647;1275;75299;-26
2022/05/01 11:21:22;;;;;;;1.80;1.20;;;;;;;21.31;24.22;99419.23;104868;1272;76268;-26
2022/05/01 11:23:57;;;;;;;3.80;1.50;;;;;;;21.32;23.77;99418.23;105054;1274;74365;-26
2022/05/01 11:26:25;;;;;;;2.90;1.00;;;;;;;21.78;21.94;99415.63;104984;1274;62130;-26
2022/05/01 11:28:53;;;;;;;1.40;1.10;;;;;;;22.04;22.10;99413.61;104851;1271;61122;-26
2022/05/01 11:31:36;;;;;;;1.20;1.00;;;;;;;22.39;21.50;99408.42;104771;1271;73797;-26
2022/05/01 11:34:16;;;;;;;2.00;1.20;;;;;;;22.62;22.34;99402.09;104908;1271;76053;-26
2022/05/01 11:36:49;;;;;;;1.30;0.90;;;;;;;22.57;23.41;99399.94;104966;1273;74199;-26
2022/05/01 11:39:16;;;;;;;1.30;0.90;;;;;;;21.95;22.62;99399.10;104844;1274;62035;-26
2022/05/01 11:41:43;;;;;;;3.70;1.30;;;;;;;21.56;23.13;99399.82;105053;1271;61163;-26
2022/05/01 11:44:24;;;;;;;2.50;1.20;;;;;;;21.08;23.01;99396.16;104978;1271;75428;-26
2022/05/01 11:46:52;;;;;;;4.10;1.30;;;;;;;21.21;22.67;99396.48;104876;1271;76368;-26
2022/05/01 11:49:19;;;;;;;2.40;1.20;;;;;;;21.46;22.08;99396.56;105138;1271;74188;-26
2022/05/01 11:51:47;;;;;;;4.50;1.30;;;;;;;21.18;22.03;99392.27;105007;1272;61093;-26
2022/05/01 11:54:15;;;;;;;1.90;1.20;;;;;;;21.05;21.85;99393.72;104836;1274;61163;-26
2022/05/01 12:02:24;;;;;;;1.40;0.80;;;;;;;20.59;21.95;99384.50;105102;1274;74252;-26
2022/05/01 12:05:00;;;;;;;2.70;1.10;;;;;;;20.52;23.35;99380.86;104903;1272;61128;-26
2022/05/01 12:07:27;;;;;;;1.70;1.20;;;;;;;20.63;23.14;99381.72;104933;1274;61144;-26